createdAt,value
2022-08-05T00:03:57.856Z,39.16
2022-08-05T00:08:54.460Z,39.39
2022-08-05T00:13:53.174Z,39.42
2022-08-05T00:18:49.982Z,39.38
2022-08-05T00:24:05.058Z,39.65
2022-08-05T00:29:04.832Z,39.44
2022-08-05T00:34:56.203Z,39.34
2022-08-05T00:39:18.885Z,39.25
2022-08-05T00:44:15.557Z,39.36
2022-08-05T00:49:14.052Z,39.97
2022-08-05T00:54:11.600Z,38.91
2022-08-05T00:59:08.923Z,36.33
2022-08-05T01:04:13.551Z,36.91
2022-08-05T01:09:11.124Z,36.94
2022-08-05T01:14:15.439Z,36.75
2022-08-05T01:19:19.988Z,37.73
2022-08-05T01:24:23.348Z,39.00
2022-08-05T01:29:24.901Z,42.48
2022-08-05T01:34:26.917Z,42.30
2022-08-05T01:39:46.816Z,42.02
2022-08-05T01:44:42.913Z,42.15
2022-08-05T01:50:00.520Z,41.82
2022-08-05T01:55:01.301Z,39.82
2022-08-05T02:00:03.422Z,39.26
2022-08-05T02:05:01.285Z,39.16
2022-08-05T02:10:00.529Z,39.17
2022-08-05T02:15:02.977Z,42.14
2022-08-05T02:20:03.286Z,44.78
2022-08-05T02:25:02.448Z,44.76
2022-08-05T02:30:01.110Z,44.48
2022-08-05T02:34:58.939Z,44.28
2022-08-05T02:40:01.264Z,44.00
2022-08-05T02:44:58.795Z,44.24
2022-08-05T02:49:55.696Z,44.28
2022-08-05T02:54:53.167Z,44.37
2022-08-05T02:59:52.073Z,44.18
2022-08-05T03:04:53.221Z,44.65
2022-08-05T03:09:51.969Z,44.38
2022-08-05T03:14:50.152Z,44.58
2022-08-05T03:19:46.730Z,45.09
2022-08-05T03:24:47.742Z,44.97
2022-08-05T03:30:07.369Z,44.97
2022-08-05T03:35:06.260Z,44.55
2022-08-05T03:40:08.333Z,45.33
2022-08-05T03:45:21.735Z,44.56
2022-08-05T03:50:20.723Z,44.14
2022-08-05T03:56:04.361Z,44.10
2022-08-05T04:00:35.777Z,43.45
2022-08-05T04:05:34.900Z,43.20
2022-08-05T04:10:37.587Z,42.59
2022-08-05T04:15:35.887Z,42.31
2022-08-05T04:20:33.889Z,42.28
2022-08-05T04:25:57.829Z,42.89
2022-08-05T04:30:48.106Z,42.68
2022-08-05T04:36:15.912Z,43.09
2022-08-05T04:41:03.526Z,43.29
2022-08-05T04:46:02.567Z,43.32
2022-08-05T04:51:11.172Z,43.07
2022-08-05T04:56:33.447Z,43.48
2022-08-05T05:02:05.491Z,43.08
2022-08-05T05:06:44.781Z,42.61
2022-08-05T05:11:55.503Z,42.03
2022-08-05T05:16:54.612Z,42.59
2022-08-05T05:21:55.679Z,43.11
2022-08-05T05:26:52.504Z,42.71
2022-08-05T05:31:49.310Z,42.08
2022-08-05T05:36:47.832Z,42.65
2022-08-05T05:41:54.444Z,42.48
2022-08-05T05:46:51.411Z,43.55
2022-08-05T05:51:50.330Z,43.87
2022-08-05T05:56:49.233Z,44.26
2022-08-05T06:01:57.799Z,44.19
2022-08-05T06:06:54.784Z,43.59
2022-08-05T06:12:02.043Z,43.02
2022-08-05T06:16:59.683Z,42.80
2022-08-05T06:21:59.197Z,43.06
2022-08-05T06:26:57.575Z,43.57
2022-08-05T06:31:54.180Z,44.63
2022-08-05T06:36:57.087Z,45.68
2022-08-05T06:41:58.666Z,48.27
2022-08-05T06:46:56.963Z,48.48
2022-08-05T06:51:53.776Z,49.18
2022-08-05T06:56:55.110Z,47.98
2022-08-05T07:02:08.291Z,48.25
2022-08-05T07:07:08.042Z,47.31
2022-08-05T07:12:05.106Z,46.84
2022-08-05T07:18:01.837Z,46.00
2022-08-05T07:22:21.950Z,46.82
2022-08-05T07:27:27.415Z,45.91
2022-08-05T07:32:39.195Z,45.26
2022-08-05T07:37:39.457Z,44.96
2022-08-05T07:42:36.508Z,44.66
2022-08-05T07:47:42.071Z,44.81
2022-08-05T07:52:39.888Z,44.38
2022-08-05T07:57:51.354Z,43.79
2022-08-05T08:03:14.598Z,42.98
2022-08-05T08:08:12.380Z,42.75
2022-08-05T08:13:09.229Z,42.82
2022-08-05T08:18:14.411Z,42.34
2022-08-05T08:24:02.216Z,42.01
2022-08-05T08:28:36.050Z,41.59
2022-08-05T08:33:36.056Z,41.16
2022-08-05T08:38:37.628Z,40.80
2022-08-05T08:45:16.585Z,39.83
2022-08-05T08:49:06.109Z,39.57
2022-08-05T08:54:13.893Z,39.22
2022-08-05T08:59:19.385Z,38.54
2022-08-05T09:04:16.864Z,38.87
2022-08-05T09:09:15.846Z,37.54
2022-08-05T09:14:57.459Z,37.93
2022-08-05T09:19:36.445Z,37.46
2022-08-05T09:24:58.124Z,37.91
2022-08-05T09:29:54.758Z,37.29
2022-08-05T09:34:52.687Z,37.21
2022-08-05T09:39:52.096Z,36.13
2022-08-05T09:44:56.734Z,36.69
2022-08-05T09:50:01.251Z,35.81
2022-08-05T09:55:00.153Z,35.56
2022-08-05T10:00:08.097Z,35.59
2022-08-05T10:05:07.986Z,35.31
2022-08-05T10:10:15.642Z,35.35
2022-08-05T10:15:17.011Z,35.34
2022-08-05T10:20:16.213Z,34.21
2022-08-05T10:25:18.038Z,33.14
2022-08-05T10:32:47.739Z,33.09
2022-08-05T10:35:40.594Z,33.48
2022-08-05T10:40:45.068Z,32.54
2022-08-05T10:45:42.639Z,32.56
2022-08-05T10:50:54.587Z,33.82
2022-08-05T10:56:21.177Z,32.84
2022-08-05T11:01:54.883Z,32.72
2022-08-05T11:07:05.879Z,32.14
2022-08-05T11:12:03.636Z,32.07
2022-08-05T11:18:00.250Z,32.15
2022-08-05T11:22:54.033Z,30.99
2022-08-05T11:28:00.744Z,31.68
2022-08-05T11:33:13.738Z,31.61
2022-08-05T11:38:29.464Z,30.70
2022-08-05T11:44:00.746Z,30.57
2022-08-05T11:48:50.253Z,30.55
2022-08-05T11:53:48.580Z,29.91
2022-08-05T11:58:53.078Z,29.70
2022-08-05T12:03:56.125Z,30.18
2022-08-05T12:08:54.814Z,30.67
2022-08-05T12:13:53.678Z,31.74
2022-08-05T12:18:53.036Z,31.15
2022-08-05T12:23:54.608Z,30.96
2022-08-05T12:28:51.285Z,30.91
2022-08-05T12:33:48.039Z,30.30
2022-08-05T12:38:44.972Z,30.22
2022-08-05T12:43:50.081Z,29.60
2022-08-05T12:48:47.103Z,28.97
2022-08-05T12:53:44.843Z,28.98
2022-08-05T12:59:13.823Z,28.82
2022-08-05T13:04:13.592Z,29.42
2022-08-05T13:09:28.631Z,30.00
2022-08-05T13:14:36.657Z,29.49
2022-08-05T13:19:51.680Z,29.81
2022-08-05T13:24:57.698Z,28.85
2022-08-05T13:30:35.104Z,28.46
2022-08-05T13:35:15.761Z,28.84
2022-08-05T13:40:36.670Z,29.40
2022-08-05T13:45:43.304Z,29.62
2022-08-05T13:50:40.047Z,29.30
2022-08-05T13:55:40.723Z,29.71
2022-08-05T14:00:38.127Z,28.81
2022-08-05T14:06:24.455Z,28.73
2022-08-05T14:11:03.236Z,29.53
2022-08-05T14:16:16.775Z,28.56
2022-08-05T14:22:07.925Z,29.03
2022-08-05T14:26:36.207Z,27.91
2022-08-05T14:32:02.858Z,27.84
2022-08-05T14:36:55.290Z,27.83
2022-08-05T14:42:15.888Z,28.65
2022-08-05T14:47:08.882Z,28.09
2022-08-05T14:52:06.713Z,28.82
2022-08-05T14:57:13.482Z,28.42
2022-08-05T15:02:14.785Z,28.59
2022-08-05T15:08:06.086Z,27.61
2022-08-05T15:12:41.095Z,27.50
2022-08-05T15:17:51.192Z,27.95
2022-08-05T15:22:52.244Z,27.85
2022-08-05T15:27:52.381Z,28.28
2022-08-05T15:32:51.561Z,28.04
2022-08-05T15:38:31.720Z,29.31
2022-08-05T15:43:12.867Z,28.64
2022-08-05T15:48:16.715Z,29.32
2022-08-05T15:53:26.333Z,28.45
2022-08-05T15:58:23.639Z,28.48
2022-08-05T16:03:20.693Z,28.97
2022-08-05T16:08:17.742Z,29.54
2022-08-05T16:13:23.287Z,28.88
2022-08-05T16:18:21.024Z,28.42
2022-08-05T16:23:27.786Z,28.53
2022-08-05T16:28:30.575Z,29.07
2022-08-05T16:33:28.142Z,29.78
2022-08-05T16:38:28.024Z,30.87
2022-08-05T16:43:25.502Z,30.37
2022-08-05T16:48:25.271Z,30.31
2022-08-05T16:53:32.102Z,30.61
2022-08-05T16:58:29.637Z,29.83
2022-08-05T17:03:27.342Z,29.94
2022-08-05T17:08:33.445Z,29.43
2022-08-05T17:13:37.676Z,29.15
2022-08-05T17:18:39.219Z,29.10
2022-08-05T17:24:05.054Z,29.21
2022-08-05T17:28:52.703Z,28.81
2022-08-05T17:33:50.904Z,29.13
2022-08-05T17:38:48.248Z,29.05
2022-08-05T17:43:53.126Z,28.80
2022-08-05T17:48:50.779Z,28.93
2022-08-05T17:53:50.717Z,29.03
2022-08-05T17:58:51.562Z,29.14
2022-08-05T18:04:03.910Z,29.35
2022-08-05T18:09:03.695Z,29.57
2022-08-05T18:14:03.598Z,29.95
2022-08-05T18:19:02.727Z,29.57
2022-08-05T18:23:59.391Z,30.03
2022-08-05T18:28:56.784Z,30.44
2022-08-05T18:33:53.648Z,30.33
2022-08-05T18:38:53.360Z,31.00
2022-08-05T18:43:51.244Z,31.39
2022-08-05T18:48:52.100Z,31.38
2022-08-05T18:53:50.665Z,31.90
2022-08-05T18:58:47.334Z,31.99
2022-08-05T19:03:54.867Z,32.10
2022-08-05T19:08:52.558Z,32.73
2022-08-05T19:13:49.445Z,32.74
2022-08-05T19:18:59.275Z,32.68
2022-08-05T19:24:05.723Z,32.55
2022-08-05T19:29:07.029Z,32.53
2022-08-05T19:34:04.649Z,33.36
2022-08-05T19:39:02.412Z,33.25
2022-08-05T19:44:13.818Z,33.12
2022-08-05T19:49:16.362Z,33.30
2022-08-05T19:54:28.393Z,33.73
2022-08-05T20:00:00.881Z,33.93
2022-08-05T20:04:46.087Z,34.43
2022-08-05T20:09:53.520Z,34.43
2022-08-05T20:14:52.935Z,34.67
2022-08-05T20:19:50.613Z,34.55
2022-08-05T20:24:47.257Z,34.67
2022-08-05T20:29:57.660Z,34.77
2022-08-05T20:34:56.076Z,34.84
2022-08-05T20:39:53.924Z,34.98
2022-08-05T20:44:55.242Z,34.55
2022-08-05T20:49:53.211Z,34.56
2022-08-05T20:54:59.504Z,34.84
2022-08-05T21:00:34.930Z,35.11
2022-08-05T21:05:28.555Z,35.07
2022-08-05T21:10:49.105Z,34.74
2022-08-05T21:15:51.073Z,34.92
2022-08-05T21:20:48.031Z,34.73
2022-08-05T21:25:45.369Z,34.34
2022-08-05T21:30:42.279Z,34.15
2022-08-05T21:35:43.734Z,34.41
2022-08-05T21:40:53.448Z,34.51
2022-08-05T21:45:56.548Z,34.19
2022-08-05T21:50:54.662Z,33.95
2022-08-05T21:56:05.638Z,33.67
2022-08-05T22:01:08.694Z,33.71
2022-08-05T22:06:08.353Z,33.60
2022-08-05T22:11:06.743Z,34.38
2022-08-05T22:16:20.418Z,35.56
2022-08-05T22:21:21.480Z,39.30
2022-08-05T22:26:37.235Z,42.71
2022-08-05T22:31:44.787Z,43.35
2022-08-05T22:36:42.379Z,40.45
2022-08-05T22:42:10.738Z,39.98
2022-08-05T22:46:56.500Z,42.17
2022-08-05T22:52:05.453Z,41.13
2022-08-05T22:57:05.085Z,41.14
2022-08-05T23:02:06.075Z,41.13
2022-08-05T23:07:05.414Z,40.24
2022-08-05T23:12:04.163Z,41.82
2022-08-05T23:17:24.615Z,42.55
2022-08-05T23:22:31.972Z,42.28
2022-08-05T23:27:42.235Z,42.58
2022-08-05T23:32:40.826Z,44.28
2022-08-05T23:37:43.696Z,45.23
2022-08-05T23:42:40.317Z,45.74
2022-08-05T23:47:47.667Z,45.66
2022-08-05T23:52:49.946Z,44.98
2022-08-05T23:57:48.911Z,44.67
